Time;durP1;ratioP1;P1;durP2;ratioP2;P2;SDS_P1;SDS_P2;PMS_P1;PMS_P2;Temp;Humidity;BMP_temperature;BMP_pressure;BME280_temperature;BME280_humidity;BME280_pressure;Samples;Min_cycle;Max_cycle;Signal;HPM_P1;HPM_P2
2022/11/07 00:02:05;;;;;;;1.38;1.27;;;10.40;47.20;;;;;;4981789;28;20359;-90
2022/11/07 00:04:34;;;;;;;1.23;1.20;;;10.40;47.20;;;;;;4976658;28;20214;-90
2022/11/07 00:07:05;;;;;;;1.30;1.20;;;10.40;44.40;;;;;;4981306;28;20351;-89
2022/11/07 00:09:35;;;;;;;1.13;1.10;;;10.30;47.10;;;;;;4978098;28;20235;-89
2022/11/07 00:12:05;;;;;;;1.00;1.00;;;10.20;47.00;;;;;;4982860;28;20622;-89
2022/11/07 00:14:32;;;;;;;1.35;1.25;;;10.20;47.00;;;;;;4978038;28;20295;-90
2022/11/07 00:17:17;;;;;;;1.73;1.40;;;10.20;47.00;;;;;;4980560;28;20319;-90
2022/11/07 00:19:45;;;;;;;2.47;1.20;;;10.30;47.10;;;;;;4980247;28;20207;-90
2022/11/07 00:22:12;;;;;;;1.42;1.10;;;10.30;47.10;;;;;;4971666;28;20319;-90
2022/11/07 00:24:40;;;;;;;1.85;1.38;;;10.40;45.60;;;;;;4979729;28;20650;-90
2022/11/07 00:27:16;;;;;;;1.77;1.20;;;10.30;47.10;;;;;;4984602;28;20216;-90
2022/11/07 00:29:43;;;;;;;1.83;1.30;;;10.20;47.00;;;;;;4977636;28;20962;-90
2022/11/07 00:32:10;;;;;;;1.38;1.23;;;10.10;46.90;;;;;;4977861;28;20872;-89
2022/11/07 00:34:37;;;;;;;2.63;1.45;;;10.00;46.80;;;;;;4962281;28;20283;-90
2022/11/07 00:37:05;;;;;;;2.13;1.60;;;9.90;51.50;;;;;;4976646;28;20248;-89
2022/11/07 00:39:32;;;;;;;1.50;1.40;;;9.80;54.20;;;;;;4982498;28;20244;-89
2022/11/07 00:42:40;;;;;;;1.67;1.58;;;9.70;55.90;;;;;;4981814;28;20584;-90
2022/11/07 00:45:22;;;;;;;1.40;1.20;;;9.70;57.90;;;;;;4981575;28;20294;-90
2022/11/07 00:47:50;;;;;;;1.92;1.30;;;9.60;58.50;;;;;;4981276;28;20234;-90
2022/11/07 00:50:40;;;;;;;2.25;1.30;;;9.60;61.60;;;;;;4977097;28;20205;-90
2022/11/07 00:53:09;;;;;;;1.35;1.25;;;9.70;64.10;;;;;;4980409;28;20235;-90
2022/11/07 00:55:40;;;;;;;1.45;1.25;;;9.70;67.30;;;;;;4973579;28;20216;-89
2022/11/07 00:58:07;;;;;;;1.40;1.30;;;9.70;68.40;;;;;;4977710;28;20307;-89
2022/11/07 01:01:07;;;;;;;1.33;1.00;;;9.60;67.50;;;;;;4977830;28;20198;-89
2022/11/07 01:06:37;;;;;;;1.20;1.00;;;9.60;65.30;;;;;;4972455;28;20216;-89
2022/11/07 01:09:24;;;;;;;1.27;1.13;;;9.60;63.70;;;;;;4971978;28;20308;-90
2022/11/07 01:11:58;;;;;;;1.20;1.10;;;9.90;62.20;;;;;;4973269;28;20292;-89
2022/11/07 01:14:28;;;;;;;1.10;1.00;;;10.00;59.80;;;;;;4968920;28;20361;-90
2022/11/07 01:16:58;;;;;;;1.10;1.00;;;10.20;56.90;;;;;;4966485;28;20267;-90
2022/11/07 01:19:25;;;;;;;1.38;1.20;;;10.30;58.10;;;;;;4968238;28;20296;-90
2022/11/07 01:21:52;;;;;;;1.27;1.17;;;10.40;56.70;;;;;;4973730;28;20296;-90
2022/11/07 01:24:19;;;;;;;2.90;1.30;;;10.50;55.90;;;;;;4963376;28;20234;-89
2022/11/07 01:26:54;;;;;;;3.03;0.98;;;10.60;56.90;;;;;;4968605;28;20213;-90
2022/11/07 01:29:22;;;;;;;1.58;1.25;;;10.70;56.90;;;;;;4975504;28;20206;-90
2022/11/07 01:31:52;;;;;;;1.15;1.05;;;10.80;57.30;;;;;;4974872;28;20304;-89
2022/11/07 01:34:19;;;;;;;1.83;1.10;;;10.80;56.10;;;;;;4963474;28;20345;-89
2022/11/07 01:36:46;;;;;;;1.10;1.00;;;10.90;55.00;;;;;;4971012;28;20318;-90
2022/11/07 01:39:13;;;;;;;1.67;1.00;;;10.90;55.10;;;;;;4951788;28;20211;-90
2022/11/07 01:41:40;;;;;;;1.17;1.08;;;11.00;56.90;;;;;;4969146;28;20212;-90
2022/11/07 01:44:44;;;;;;;1.00;0.90;;;11.00;57.60;;;;;;4962676;28;20217;-89
2022/11/07 01:47:12;;;;;;;1.25;1.15;;;11.00;58.70;;;;;;4913248;29;20237;-89
2022/11/07 01:49:41;;;;;;;3.17;0.90;;;11.00;59.30;;;;;;4920430;29;20306;-90
2022/11/07 01:52:12;;;;;;;1.25;1.00;;;10.90;59.40;;;;;;4898964;29;20215;-90
2022/11/07 01:54:46;;;;;;;1.20;1.10;;;10.90;60.30;;;;;;4905023;29;20706;-90
2022/11/07 01:57:19;;;;;;;2.35;1.75;;;10.90;57.70;;;;;;4911464;29;20331;-90
2022/11/07 01:59:46;;;;;;;5.95;1.23;;;10.90;58.50;;;;;;4909337;29;20717;-90
2022/11/07 02:02:15;;;;;;;1.20;1.10;;;10.80;60.90;;;;;;4910309;29;20366;-90
2022/11/07 02:04:53;;;;;;;1.15;1.05;;;10.80;60.40;;;;;;4913697;29;20301;-89
2022/11/07 02:07:22;;;;;;;1.08;1.05;;;10.80;61.10;;;;;;4915399;29;20220;-90
2022/11/07 02:09:50;;;;;;;2.05;1.20;;;10.80;62.60;;;;;;4913646;29;20215;-90
2022/11/07 02:12:18;;;;;;;2.03;1.30;;;10.90;59.40;;;;;;4920908;29;20224;-89
2022/11/07 02:14:45;;;;;;;1.30;1.20;;;10.90;60.10;;;;;;4905908;29;20216;-89
2022/11/07 02:17:14;;;;;;;1.15;1.05;;;11.00;59.50;;;;;;4920356;29;20784;-89
2022/11/07 02:19:44;;;;;;;1.20;1.10;;;11.10;59.60;;;;;;4923675;29;20251;-90
2022/11/07 02:22:19;;;;;;;1.25;1.10;;;11.20;59.00;;;;;;4928085;29;20210;-89
2022/11/07 02:24:57;;;;;;;3.08;1.52;;;11.10;60.10;;;;;;4964280;28;20209;-90
2022/11/07 02:27:27;;;;;;;1.80;1.70;;;11.20;61.30;;;;;;4982951;28;20244;-90
2022/11/07 02:29:58;;;;;;;3.35;2.70;;;11.20;63.70;;;;;;4981248;28;20303;-90
2022/11/07 02:32:25;;;;;;;3.72;2.60;;;11.10;66.60;;;;;;4970770;28;20299;-90
2022/11/07 02:34:57;;;;;;;3.45;2.70;;;11.10;70.30;;;;;;4969673;28;20654;-89
2022/11/07 02:37:27;;;;;;;2.85;2.50;;;11.00;73.70;;;;;;4967742;28;20272;-89
2022/11/07 02:39:55;;;;;;;2.13;1.92;;;11.00;70.90;;;;;;4952496;28;20213;-90
2022/11/07 02:42:23;;;;;;;1.50;1.40;;;10.90;74.00;;;;;;4965037;28;20304;-90
2022/11/07 02:44:51;;;;;;;1.40;1.20;;;10.80;74.00;;;;;;4961626;28;20244;-89
2022/11/07 02:47:18;;;;;;;1.40;1.30;;;10.70;77.40;;;;;;4972680;28;20295;-90
2022/11/07 02:49:45;;;;;;;1.20;1.10;;;10.50;78.20;;;;;;4965332;28;20208;-89
2022/11/07 02:52:12;;;;;;;1.33;1.10;;;10.50;81.00;;;;;;4971993;28;20213;-90
2022/11/07 02:54:39;;;;;;;1.98;1.30;;;10.50;81.40;;;;;;4971431;28;20311;-90
2022/11/07 02:57:12;;;;;;;1.38;1.27;;;10.40;82.00;;;;;;4968499;28;20229;-90
2022/11/07 02:59:39;;;;;;;1.63;1.35;;;10.50;81.60;;;;;;4956966;28;20296;-90
2022/11/07 03:02:05;;;;;;;1.15;1.08;;;10.50;82.70;;;;;;4977842;28;20216;-89
2022/11/07 03:04:34;;;;;;;1.30;1.20;;;10.50;82.30;;;;;;4964027;28;20197;-90
2022/11/07 03:07:01;;;;;;;1.67;1.25;;;10.60;82.60;;;;;;4968896;28;20323;-90
2022/11/07 03:09:28;;;;;;;1.20;1.10;;;10.60;82.90;;;;;;4968937;28;20200;-90
2022/11/07 03:11:55;;;;;;;2.58;1.30;;;10.60;82.90;;;;;;4966070;28;20260;-90
2022/11/07 03:14:23;;;;;;;1.15;1.02;;;10.50;84.00;;;;;;4970871;28;20284;-89
2022/11/07 03:16:50;;;;;;;2.75;1.20;;;10.60;82.90;;;;;;4970526;28;20238;-89
2022/11/07 03:19:17;;;;;;;1.30;1.20;;;10.60;82.70;;;;;;4957681;28;20232;-89
2022/11/07 03:21:49;;;;;;;1.40;1.30;;;10.60;82.10;;;;;;4974005;28;20283;-90
2022/11/07 03:24:16;;;;;;;1.83;1.10;;;10.60;83.10;;;;;;4969445;28;20834;-89
2022/11/07 03:26:58;;;;;;;1.85;1.17;;;10.50;84.30;;;;;;4973513;28;20279;-89
2022/11/07 03:29:27;;;;;;;1.13;1.02;;;10.40;85.70;;;;;;4970435;28;20260;-89
2022/11/07 03:31:54;;;;;;;1.88;1.33;;;10.30;86.90;;;;;;4971969;28;20649;-90
2022/11/07 03:34:22;;;;;;;1.92;1.55;;;10.20;87.40;;;;;;4974231;28;20204;-90
2022/11/07 03:36:49;;;;;;;1.80;1.30;;;10.20;88.70;;;;;;4975140;28;20220;-90
2022/11/07 03:39:34;;;;;;;1.45;1.10;;;10.20;87.80;;;;;;4973969;28;20295;-90
2022/11/07 03:42:01;;;;;;;2.47;1.13;;;10.10;88.90;;;;;;4974527;28;20208;-89
2022/11/07 03:44:30;;;;;;;1.55;1.10;;;10.10;89.60;;;;;;4976597;28;20295;-90
2022/11/07 03:46:57;;;;;;;1.98;1.08;;;10.00;90.20;;;;;;4979533;28;20292;-89
2022/11/07 03:49:24;;;;;;;3.30;1.30;;;9.90;90.70;;;;;;4975500;28;20308;-90
2022/11/07 03:51:52;;;;;;;1.88;1.30;;;9.90;90.70;;;;;;4977590;28;20243;-89
2022/11/07 03:54:34;;;;;;;1.70;1.20;;;9.90;90.70;;;;;;4974435;28;20255;-90
2022/11/07 03:57:10;;;;;;;2.97;1.10;;;9.90;90.70;;;;;;4973601;28;20311;-90
2022/11/07 03:59:59;;;;;;;1.70;1.00;;;9.90;90.70;;;;;;4976682;28;20644;-89
2022/11/07 04:02:28;;;;;;;1.30;1.20;;;9.90;90.70;;;;;;4976195;28;20299;-89
2022/11/07 04:04:55;;;;;;;1.48;1.27;;;10.00;90.30;;;;;;4969954;28;20205;-89
2022/11/07 04:07:46;;;;;;;2.10;1.27;;;9.90;90.70;;;;;;4974161;28;20256;-89
2022/11/07 04:10:16;;;;;;;1.77;1.13;;;9.70;90.60;;;;;;4975335;28;20242;-89
2022/11/07 04:19:08;;;;;;;2.00;1.13;;;9.60;91.50;;;;;;4965165;28;20612;-90
2022/11/07 04:21:34;;;;;;;1.20;1.10;;;9.50;91.80;;;;;;4972742;28;20204;-89
2022/11/07 04:24:01;;;;;;;2.85;1.20;;;9.40;92.10;;;;;;4973055;28;20716;-89
2022/11/07 04:29:28;;;;;;;2.65;1.90;;;9.30;92.60;;;;;;4978413;28;20191;-89
2022/11/07 04:31:55;;;;;;;1.50;1.38;;;9.20;92.70;;;;;;4980791;28;20284;-89
2022/11/07 04:34:36;;;;;;;1.30;1.20;;;9.20;93.00;;;;;;4979063;28;20216;-89
2022/11/07 04:37:05;;;;;;;1.90;1.60;;;9.20;93.20;;;;;;4980539;28;20214;-89
2022/11/07 04:39:34;;;;;;;1.40;1.30;;;9.20;93.00;;;;;;4979078;28;20240;-89
2022/11/07 04:42:01;;;;;;;1.42;1.10;;;9.10;93.40;;;;;;4983342;28;20290;-89
2022/11/07 04:44:28;;;;;;;1.48;1.38;;;9.00;94.00;;;;;;4971783;28;20208;-90
2022/11/07 04:46:55;;;;;;;1.60;1.30;;;9.00;94.00;;;;;;4972242;28;20756;-89
2022/11/07 04:49:22;;;;;;;1.60;1.30;;;8.80;94.30;;;;;;4970409;28;20235;-90
2022/11/07 04:51:54;;;;;;;1.60;1.50;;;8.80;94.50;;;;;;4975567;28;20292;-89
2022/11/07 04:54:21;;;;;;;1.98;1.40;;;8.70;94.60;;;;;;4964712;28;20226;-89
2022/11/07 04:56:48;;;;;;;2.90;1.70;;;8.70;94.70;;;;;;4968971;28;20209;-89
2022/11/07 04:59:15;;;;;;;3.05;1.60;;;8.70;94.70;;;;;;4965211;28;20234;-90
2022/11/07 05:01:42;;;;;;;2.30;1.70;;;8.60;94.70;;;;;;4966356;28;20347;-90
2022/11/07 05:04:09;;;;;;;1.92;1.60;;;8.50;95.10;;;;;;4968187;28;20300;-90
2022/11/07 05:06:37;;;;;;;2.90;1.67;;;8.40;95.50;;;;;;4973777;28;20213;-90
2022/11/07 05:09:07;;;;;;;1.85;1.60;;;8.40;95.80;;;;;;4967167;28;20221;-90
2022/11/07 05:11:34;;;;;;;2.05;1.50;;;8.40;95.80;;;;;;4970831;28;20215;-90
2022/11/07 05:14:01;;;;;;;3.17;1.75;;;8.50;95.80;;;;;;4968598;28;20200;-89
2022/11/07 05:16:30;;;;;;;1.60;1.50;;;8.40;95.80;;;;;;4970430;28;20280;-89
2022/11/07 05:18:57;;;;;;;3.65;1.70;;;8.40;95.80;;;;;;4968652;28;20992;-89
2022/11/07 05:21:24;;;;;;;1.77;1.65;;;8.30;95.80;;;;;;4970152;28;20308;-89
2022/11/07 05:23:51;;;;;;;2.05;1.48;;;8.20;95.80;;;;;;4971880;28;20231;-89
2022/11/07 05:26:20;;;;;;;2.47;1.65;;;8.20;96.30;;;;;;4964506;28;20215;-89
2022/11/07 05:28:47;;;;;;;3.63;1.60;;;8.20;96.40;;;;;;4966163;28;20278;-89
2022/11/07 05:31:16;;;;;;;2.33;1.55;;;8.10;96.30;;;;;;4972455;28;20297;-90
2022/11/07 05:33:43;;;;;;;2.00;1.73;;;8.10;96.30;;;;;;4970691;28;20206;-90
2022/11/07 05:36:13;;;;;;;2.95;1.73;;;8.10;96.60;;;;;;4965171;28;20300;-90
2022/11/07 05:38:41;;;;;;;2.38;1.60;;;8.00;96.60;;;;;;4971018;28;20224;-89
2022/11/07 05:41:08;;;;;;;1.67;1.50;;;8.00;96.80;;;;;;4968612;28;20216;-89
2022/11/07 05:43:37;;;;;;;1.50;1.40;;;7.90;96.90;;;;;;4979344;28;20287;-90
2022/11/07 05:46:04;;;;;;;3.45;1.70;;;7.90;97.30;;;;;;4968552;28;20211;-90
2022/11/07 05:48:31;;;;;;;1.90;1.70;;;7.80;97.60;;;;;;4967207;28;20307;-91
2022/11/07 05:50:58;;;;;;;4.05;1.70;;;7.70;97.80;;;;;;4964732;28;20209;-90
2022/11/07 05:53:35;;;;;;;2.08;1.63;;;7.70;97.90;;;;;;4969449;28;20225;-88
2022/11/07 05:56:02;;;;;;;3.25;2.03;;;7.70;98.00;;;;;;4974741;28;20295;-89
2022/11/07 05:58:29;;;;;;;3.33;1.75;;;7.70;97.90;;;;;;4971083;28;20804;-90
2022/11/07 06:01:01;;;;;;;1.90;1.77;;;7.60;97.70;;;;;;4964416;28;20301;-90
2022/11/07 06:03:27;;;;;;;2.28;1.90;;;7.60;97.70;;;;;;4966827;28;20197;-90
2022/11/07 06:05:54;;;;;;;3.72;2.20;;;7.60;97.90;;;;;;4964032;28;20218;-89
2022/11/07 06:08:21;;;;;;;3.95;2.03;;;7.60;97.80;;;;;;4966986;28;20217;-90
2022/11/07 06:10:48;;;;;;;2.83;2.03;;;7.60;97.70;;;;;;4969751;28;20208;-87
2022/11/07 06:13:17;;;;;;;1.98;1.77;;;7.50;97.70;;;;;;4973145;28;20299;-88
2022/11/07 06:15:44;;;;;;;2.35;2.03;;;7.60;97.70;;;;;;4968710;28;20221;-88
2022/11/07 06:18:15;;;;;;;4.55;2.90;;;7.60;97.70;;;;;;4967210;28;20228;-88
2022/11/07 06:20:42;;;;;;;2.95;1.75;;;7.60;97.40;;;;;;4967503;28;20299;-88
2022/11/07 06:23:10;;;;;;;5.75;2.08;;;7.60;97.20;;;;;;4963891;28;20308;-88
2022/11/07 06:25:37;;;;;;;2.03;1.67;;;7.60;97.10;;;;;;4967831;28;20648;-87
2022/11/07 06:28:06;;;;;;;1.98;1.77;;;7.60;97.10;;;;;;4966902;28;20208;-87
2022/11/07 06:30:33;;;;;;;2.08;1.85;;;7.60;96.90;;;;;;4969645;28;20208;-88
2022/11/07 06:33:01;;;;;;;2.35;1.75;;;7.60;96.60;;;;;;4966267;28;20204;-88
2022/11/07 06:35:30;;;;;;;2.13;1.80;;;7.60;96.50;;;;;;4973574;28;20203;-89
2022/11/07 06:38:00;;;;;;;2.53;2.10;;;7.60;96.70;;;;;;4968501;28;20235;-90
2022/11/07 06:40:27;;;;;;;3.03;2.15;;;7.70;96.40;;;;;;4966149;28;20201;-88
2022/11/07 06:42:54;;;;;;;1.80;1.67;;;7.70;96.30;;;;;;4965737;28;20786;-89
2022/11/07 06:45:22;;;;;;;1.95;1.77;;;7.70;96.00;;;;;;4962365;28;20227;-89
2022/11/07 06:47:48;;;;;;;1.88;1.50;;;7.70;96.20;;;;;;4975311;28;20204;-89
2022/11/07 06:50:15;;;;;;;2.45;2.20;;;7.70;96.50;;;;;;4968503;28;20224;-89
2022/11/07 06:52:44;;;;;;;3.58;2.53;;;7.80;95.70;;;;;;4968173;28;20218;-89
2022/11/07 06:55:11;;;;;;;1.95;1.77;;;7.90;95.70;;;;;;4976630;28;20239;-89
2022/11/07 06:57:37;;;;;;;2.95;1.67;;;8.00;95.70;;;;;;4968198;28;20246;-89
2022/11/07 07:00:05;;;;;;;2.05;1.80;;;7.90;95.70;;;;;;4962145;28;20308;-89
2022/11/07 07:02:32;;;;;;;9.38;7.65;;;7.90;95.70;;;;;;4968889;28;20287;-89
2022/11/07 07:04:59;;;;;;;13.18;10.45;;;8.00;95.70;;;;;;4971611;28;20218;-89
2022/11/07 07:07:26;;;;;;;2.88;2.58;;;8.10;95.60;;;;;;4967367;28;20587;-89
2022/11/07 07:10:00;;;;;;;5.78;4.18;;;8.20;94.90;;;;;;4970383;28;20296;-89
2022/11/07 07:12:27;;;;;;;3.35;2.50;;;8.30;94.90;;;;;;4969980;28;20219;-89
2022/11/07 07:14:54;;;;;;;2.90;2.47;;;8.30;94.60;;;;;;4970610;28;20640;-89
2022/11/07 07:17:21;;;;;;;3.50;3.20;;;8.40;94.60;;;;;;4962547;28;20239;-90
2022/11/07 07:19:48;;;;;;;4.50;2.60;;;8.40;94.70;;;;;;4969974;28;20307;-90
2022/11/07 07:22:15;;;;;;;2.45;2.03;;;8.50;94.60;;;;;;4969618;28;20683;-89
2022/11/07 07:24:42;;;;;;;3.03;2.70;;;8.50;93.60;;;;;;4971493;28;20204;-90
2022/11/07 07:27:10;;;;;;;5.97;2.95;;;8.60;94.00;;;;;;4970422;28;20215;-89
2022/11/07 07:29:37;;;;;;;3.53;1.85;;;8.70;94.20;;;;;;4970561;28;20295;-89
2022/11/07 07:32:04;;;;;;;4.30;2.05;;;8.80;93.20;;;;;;4970034;28;20771;-89
2022/11/07 07:34:31;;;;;;;3.03;2.00;;;8.90;92.70;;;;;;4971272;28;20324;-89
2022/11/07 07:36:58;;;;;;;3.53;1.60;;;9.00;91.80;;;;;;4969582;28;20291;-89
2022/11/07 07:39:26;;;;;;;3.83;1.83;;;9.10;92.10;;;;;;4963695;28;20263;-89
2022/11/07 07:41:53;;;;;;;2.33;1.95;;;9.10;92.40;;;;;;4971678;28;20219;-89
2022/11/07 07:44:21;;;;;;;2.33;1.90;;;9.20;92.50;;;;;;4972947;28;20222;-89
2022/11/07 07:46:48;;;;;;;2.63;2.10;;;9.20;92.10;;;;;;4973808;28;20240;-89
2022/11/07 07:49:29;;;;;;;1.83;1.70;;;9.30;92.10;;;;;;4975391;28;20301;-89
2022/11/07 07:51:56;;;;;;;2.88;2.10;;;9.50;91.30;;;;;;4985615;28;20277;-89
2022/11/07 07:54:23;;;;;;;2.25;1.70;;;9.60;90.90;;;;;;4979889;28;20315;-90
2022/11/07 07:57:05;;;;;;;1.65;1.50;;;9.80;90.60;;;;;;4982170;28;20303;-90
2022/11/07 07:59:42;;;;;;;2.10;1.50;;;9.90;90.70;;;;;;4960115;28;20950;-89
2022/11/07 08:02:11;;;;;;;3.22;1.90;;;10.20;84.20;;;;;;4965480;28;20196;-90
2022/11/07 08:04:38;;;;;;;1.58;1.45;;;10.40;85.80;;;;;;4984831;28;20299;-90
2022/11/07 08:07:11;;;;;;;1.92;1.38;;;10.50;84.70;;;;;;4976122;28;20284;-90
2022/11/07 08:09:41;;;;;;;1.70;1.58;;;10.70;81.00;;;;;;4971477;28;20212;-89
2022/11/07 08:12:08;;;;;;;1.50;1.30;;;10.80;80.10;;;;;;4971010;28;20279;-90
2022/11/07 08:14:35;;;;;;;3.35;1.50;;;11.00;82.40;;;;;;4977634;28;20201;-90
2022/11/07 08:17:06;;;;;;;1.25;1.15;;;11.20;80.20;;;;;;4965471;28;20200;-90
2022/11/07 08:19:33;;;;;;;2.38;1.20;;;11.50;74.70;;;;;;4968889;28;20259;-90
2022/11/07 08:22:00;;;;;;;1.48;1.25;;;11.60;74.90;;;;;;4975458;28;20201;-90
2022/11/07 08:24:52;;;;;;;1.20;1.10;;;11.80;75.10;;;;;;4985891;28;20283;-90
2022/11/07 08:27:58;;;;;;;1.60;1.20;;;12.00;69.30;;;;;;4974850;28;20292;-90
2022/11/07 08:30:30;;;;;;;3.13;1.35;;;12.20;67.60;;;;;;4972541;28;20295;-90
2022/11/07 08:33:01;;;;;;;2.70;1.50;;;12.60;57.10;;;;;;4969372;28;20209;-90
2022/11/07 08:35:29;;;;;;;1.73;1.20;;;13.00;55.30;;;;;;4973467;28;20218;-90
2022/11/07 08:37:56;;;;;;;3.10;1.33;;;13.30;53.10;;;;;;4973567;28;20291;-90
2022/11/07 08:40:29;;;;;;;1.33;1.23;;;13.80;46.80;;;;;;4968082;28;20235;-89
2022/11/07 08:43:00;;;;;;;6.10;1.88;;;14.20;42.30;;;;;;4973639;28;20653;-89
2022/11/07 08:45:27;;;;;;;1.20;1.10;;;14.90;42.80;;;;;;4970069;28;20263;-89
2022/11/07 08:47:57;;;;;;;2.95;1.25;;;15.60;38.00;;;;;;4972453;28;20247;-91
2022/11/07 08:50:26;;;;;;;1.42;1.25;;;16.40;34.20;;;;;;4967607;28;20684;-90
2022/11/07 08:52:53;;;;;;;1.67;1.40;;;16.90;29.50;;;;;;4968533;28;20661;-88
2022/11/07 08:55:23;;;;;;;2.25;1.67;;;17.10;29.60;;;;;;4973416;28;20665;-88
2022/11/07 08:57:50;;;;;;;1.60;1.50;;;17.30;28.50;;;;;;4965945;28;20396;-88
2022/11/07 09:00:17;;;;;;;2.85;1.23;;;18.10;23.80;;;;;;4982370;28;20238;-85
2022/11/07 09:02:45;;;;;;;1.55;1.45;;;18.80;24.50;;;;;;4979069;28;20212;-87
2022/11/07 09:05:12;;;;;;;2.03;1.38;;;20.20;19.10;;;;;;4961078;28;20205;-87
2022/11/07 09:07:40;;;;;;;1.50;1.40;;;20.80;18.70;;;;;;4971676;28;20208;-87
2022/11/07 09:10:08;;;;;;;1.70;1.48;;;21.10;17.20;;;;;;4973330;28;20303;-88
2022/11/07 09:12:35;;;;;;;2.83;1.40;;;21.10;18.00;;;;;;4965899;28;20450;-88
2022/11/07 09:15:02;;;;;;;1.60;1.50;;;21.40;16.20;;;;;;4969604;28;20318;-87
2022/11/07 09:17:28;;;;;;;1.60;1.50;;;21.20;16.40;;;;;;4965565;28;20208;-88
2022/11/07 09:19:55;;;;;;;1.50;1.40;;;21.30;17.50;;;;;;4965177;28;20228;-88
2022/11/07 09:22:22;;;;;;;1.60;1.50;;;21.90;15.60;;;;;;4968434;28;20214;-88
2022/11/07 09:24:50;;;;;;;1.70;1.60;;;21.80;16.20;;;;;;4964832;28;20209;-88
2022/11/07 09:27:17;;;;;;;2.65;1.45;;;22.40;15.40;;;;;;4967099;28;20298;-88
2022/11/07 09:29:44;;;;;;;1.83;1.38;;;22.00;15.50;;;;;;4964126;28;20220;-88
2022/11/07 09:32:11;;;;;;;1.63;1.52;;;21.50;17.10;;;;;;4976698;28;20207;-88
2022/11/07 09:34:38;;;;;;;1.73;1.63;;;21.80;16.70;;;;;;4964784;28;20221;-88
2022/11/07 09:37:05;;;;;;;1.20;1.20;;;21.50;16.30;;;;;;4960703;28;20208;-88
2022/11/07 09:39:33;;;;;;;3.33;1.73;;;21.80;15.50;;;;;;4968180;28;20307;-88
2022/11/07 09:42:16;;;;;;;1.98;1.40;;;22.40;14.70;;;;;;4964527;28;20295;-88
2022/11/07 09:44:50;;;;;;;1.80;1.50;;;22.50;15.40;;;;;;4972115;28;20208;-87
2022/11/07 09:47:21;;;;;;;1.83;1.55;;;21.70;15.50;;;;;;4958253;28;20248;-88
2022/11/07 09:49:51;;;;;;;2.90;1.45;;;21.30;15.70;;;;;;4970704;28;20220;-88
2022/11/07 09:52:24;;;;;;;1.75;1.40;;;21.50;15.20;;;;;;4972090;28;20683;-88
2022/11/07 09:54:55;;;;;;;1.77;1.42;;;21.60;15.70;;;;;;4970541;28;20292;-87
2022/11/07 09:57:26;;;;;;;2.40;1.40;;;21.60;15.20;;;;;;4966061;28;20209;-84
2022/11/07 09:59:55;;;;;;;2.10;1.27;;;20.70;16.20;;;;;;4978328;28;20609;-86
2022/11/07 10:02:26;;;;;;;2.20;1.40;;;20.10;17.90;;;;;;4961426;28;20292;-86
2022/11/07 10:04:57;;;;;;;2.53;1.40;;;19.90;18.20;;;;;;4978539;28;20204;-87
2022/11/07 10:07:32;;;;;;;2.67;1.20;;;20.20;18.10;;;;;;4969224;28;20226;-86
2022/11/07 10:10:06;;;;;;;1.98;1.38;;;20.30;18.00;;;;;;4969219;28;20310;-87
2022/11/07 10:13:04;;;;;;;1.45;1.30;;;20.50;17.40;;;;;;4971360;28;20294;-87
2022/11/07 10:15:45;;;;;;;1.30;1.20;;;20.30;17.80;;;;;;4965653;28;20288;-87
2022/11/07 10:18:23;;;;;;;2.42;1.40;;;20.20;17.90;;;;;;4928603;28;1095619;-86
2022/11/07 10:20:58;;;;;;;1.98;1.40;;;20.20;18.00;;;;;;4969281;28;20228;-86
2022/11/07 10:23:38;;;;;;;2.88;1.17;;;19.80;18.20;;;;;;4971793;28;20208;-89
2022/11/07 10:26:09;;;;;;;3.58;1.30;;;19.00;19.60;;;;;;4959885;28;20291;-89
2022/11/07 10:28:44;;;;;;;2.97;1.35;;;19.00;19.70;;;;;;4967061;28;20661;-89
2022/11/07 10:31:13;;;;;;;2.17;1.30;;;18.40;20.60;;;;;;4966530;28;20204;-89
2022/11/07 10:33:47;;;;;;;1.98;1.20;;;18.50;20.80;;;;;;4966689;28;20293;-89
2022/11/07 10:36:21;;;;;;;1.63;1.30;;;18.40;21.60;;;;;;4967610;28;20209;-89
2022/11/07 10:38:48;;;;;;;2.10;1.40;;;18.40;22.70;;;;;;4964395;28;20205;-88
2022/11/07 10:41:16;;;;;;;3.00;1.00;;;18.50;21.10;;;;;;4965888;28;20291;-89
2022/11/07 10:43:48;;;;;;;4.07;1.42;;;18.50;20.00;;;;;;4967881;28;20210;-89
2022/11/07 10:46:18;;;;;;;1.90;1.30;;;18.20;22.10;;;;;;4967497;28;20212;-88
2022/11/07 10:48:57;;;;;;;1.95;1.13;;;17.70;22.20;;;;;;4963823;28;20233;-89
2022/11/07 10:51:34;;;;;;;2.85;1.30;;;17.60;24.10;;;;;;4966126;28;20300;-88
2022/11/07 10:54:01;;;;;;;2.33;1.30;;;17.70;25.10;;;;;;4967785;28;20225;-89
2022/11/07 10:56:29;;;;;;;1.30;1.00;;;17.60;25.10;;;;;;4969629;28;20691;-88
2022/11/07 10:59:01;;;;;;;3.90;1.35;;;17.60;23.10;;;;;;4972953;28;20208;-88
2022/11/07 11:01:28;;;;;;;4.55;1.40;;;17.50;23.70;;;;;;4970191;28;20240;-90
2022/11/07 11:03:55;;;;;;;2.08;1.20;;;17.50;24.60;;;;;;4967202;28;20615;-91
2022/11/07 11:06:29;;;;;;;1.45;0.98;;;17.30;26.60;;;;;;4971849;28;20204;-90
2022/11/07 11:08:57;;;;;;;3.03;1.58;;;17.00;24.40;;;;;;4963621;28;20207;-90
2022/11/07 11:11:29;;;;;;;3.45;1.35;;;16.60;26.30;;;;;;4971462;28;20246;-90
2022/11/07 11:14:20;;;;;;;3.88;1.67;;;16.50;28.40;;;;;;4971237;28;20209;-90
2022/11/07 11:16:50;;;;;;;2.15;1.30;;;16.40;29.00;;;;;;4966515;28;20216;-90
2022/11/07 11:19:22;;;;;;;2.58;1.13;;;16.40;29.10;;;;;;4964581;28;20235;-90
2022/11/07 11:21:51;;;;;;;1.92;1.30;;;16.30;28.10;;;;;;4970133;28;20217;-90
2022/11/07 11:24:29;;;;;;;1.80;1.20;;;16.20;28.90;;;;;;4967714;28;20218;-90
2022/11/07 11:26:59;;;;;;;1.27;1.10;;;16.30;26.80;;;;;;4973144;28;20298;-90
2022/11/07 11:29:40;;;;;;;1.60;1.10;;;16.20;28.80;;;;;;4968742;28;20325;-90
2022/11/07 11:32:20;;;;;;;1.20;1.10;;;16.30;28.90;;;;;;4970292;28;20215;-90
2022/11/07 11:34:55;;;;;;;2.53;1.40;;;16.10;27.40;;;;;;4972917;28;20243;-90
2022/11/07 11:37:26;;;;;;;2.80;1.00;;;16.00;28.70;;;;;;4966065;28;20251;-90
2022/11/07 11:40:06;;;;;;;3.58;1.27;;;16.00;28.70;;;;;;4967661;28;20885;-90
2022/11/07 11:42:43;;;;;;;1.63;1.23;;;15.80;28.50;;;;;;4972578;28;20576;-89
2022/11/07 11:45:16;;;;;;;3.33;1.23;;;15.70;28.40;;;;;;4969500;28;20295;-90
2022/11/07 11:47:55;;;;;;;1.48;1.10;;;15.70;28.40;;;;;;4967598;28;20236;-90
2022/11/07 11:50:28;;;;;;;1.55;1.00;;;15.70;28.40;;;;;;4972139;28;20208;-90
2022/11/07 11:53:00;;;;;;;2.50;1.17;;;15.60;28.40;;;;;;4966960;28;20232;-90
2022/11/07 11:55:35;;;;;;;2.20;1.30;;;15.40;28.20;;;;;;4969027;28;20288;-90
2022/11/07 11:58:12;;;;;;;1.33;1.13;;;15.40;30.10;;;;;;4974407;28;20581;-90
2022/11/07 12:00:48;;;;;;;3.15;1.42;;;15.50;29.20;;;;;;4968325;28;20232;-90
2022/11/07 12:03:49;;;;;;;2.17;1.13;;;15.60;29.20;;;;;;4965928;28;20239;-90
2022/11/07 12:06:18;;;;;;;1.15;1.02;;;15.60;29.30;;;;;;4964542;28;20258;-90
2022/11/07 12:09:17;;;;;;;1.00;0.90;;;15.70;28.40;;;;;;4976208;28;20935;-90
2022/11/07 12:11:57;;;;;;;1.38;1.00;;;15.80;28.50;;;;;;4975157;28;20242;-90
2022/11/07 12:14:43;;;;;;;2.53;1.27;;;16.00;28.70;;;;;;4978469;28;20227;-90
2022/11/07 12:17:17;;;;;;;2.30;1.20;;;16.20;28.90;;;;;;4975312;28;20299;-90
2022/11/07 12:19:50;;;;;;;1.80;1.13;;;16.20;28.90;;;;;;4981910;28;20598;-90
2022/11/07 12:22:26;;;;;;;3.42;1.20;;;16.20;28.90;;;;;;4963409;28;20209;-90
2022/11/07 12:24:58;;;;;;;1.13;1.00;;;16.30;30.00;;;;;;4972673;28;20580;-90
2022/11/07 12:27:34;;;;;;;1.42;1.33;;;16.30;29.00;;;;;;4971853;28;20255;-89
2022/11/07 12:30:10;;;;;;;2.10;1.10;;;16.20;28.90;;;;;;4968710;28;20244;-91
2022/11/07 12:32:52;;;;;;;3.97;1.10;;;16.20;28.90;;;;;;4970137;28;20708;-90
2022/11/07 12:35:42;;;;;;;2.90;1.33;;;16.10;28.80;;;;;;4974539;28;20212;-91
2022/11/07 12:38:32;;;;;;;3.35;1.30;;;16.00;28.70;;;;;;4972562;28;20216;-90
2022/11/07 12:41:13;;;;;;;1.63;1.20;;;15.90;28.60;;;;;;4968469;28;20220;-91
2022/11/07 12:43:54;;;;;;;3.42;1.02;;;15.90;28.60;;;;;;4980395;28;20295;-91
2022/11/07 12:46:30;;;;;;;1.60;1.10;;;15.80;28.50;;;;;;4982833;28;20300;-91
2022/11/07 12:49:25;;;;;;;1.20;1.10;;;15.70;28.40;;;;;;4971638;28;20620;-90
2022/11/07 12:52:00;;;;;;;1.02;0.95;;;15.80;28.60;;;;;;4978736;28;22044;-91
2022/11/07 12:54:41;;;;;;;1.58;0.93;;;15.80;28.50;;;;;;4973140;28;20656;-91
2022/11/07 12:57:16;;;;;;;1.48;1.10;;;15.80;28.50;;;;;;4970965;28;20205;-91
2022/11/07 12:59:48;;;;;;;2.47;1.25;;;15.70;28.40;;;;;;4959755;28;20304;-91
2022/11/07 13:02:27;;;;;;;3.55;1.60;;;15.70;28.40;;;;;;4965888;28;20219;-91
2022/11/07 13:04:59;;;;;;;2.33;1.20;;;15.70;28.40;;;;;;4967049;28;20789;-91
2022/11/07 13:07:33;;;;;;;1.30;1.10;;;15.70;28.40;;;;;;4973929;28;20236;-91
2022/11/07 13:10:09;;;;;;;3.83;1.42;;;15.70;28.40;;;;;;4974889;28;20269;-91
2022/11/07 13:12:39;;;;;;;2.47;1.10;;;15.60;28.30;;;;;;4969597;28;20323;-91
2022/11/07 13:15:10;;;;;;;1.40;0.93;;;15.70;28.40;;;;;;4975804;28;20291;-91
2022/11/07 13:17:43;;;;;;;2.13;1.20;;;15.80;28.60;;;;;;4974829;28;20212;-92
2022/11/07 13:23:15;;;;;;;3.05;1.50;;;15.90;27.60;;;;;;5107270;27;20621;-91
2022/11/07 13:25:42;;;;;;;1.55;1.33;;;15.80;28.50;;;;;;5104497;28;20195;-91
2022/11/07 13:28:29;;;;;;;2.17;1.25;;;15.80;28.20;;;;;;5108358;28;20294;-91